Flight Briefing for CPX425

Departure Arrival
Miami International Airport (KMIA)
Click to view FAA NOTAMS
Washington Dulles International Airport (KIAD)
Click to view FAA NOTAMS
Departure Time Arrival Time
N/A N/A
Aircraft Distance
B757-200SF 894nm
Departure METAR Arrival METAR
KMIA 190653Z 35008KT 8SM OVC011 21/19 A3000 RMK AO2 SLP160 T02110194 KIAD 190652Z 32004KT 10SM CLR M02/M08 A3039 RMK AO2 SLP292 T10171078
Suggested Route
HEDLY2 HEDLY ORL J53 CRG J55 SAV FLO J207 RDU DORRN CAVLR3


View recent IFR Routes data
Notes



Charts and Procedures

Charts for KMIA
No chart available
Charts for KIAD
No chart available

Windy.com Weather Map